Portada
METAR-TAF:

METAR-TAF

Aeropuertos :

Aeropuerto Internacional de Wuhan-Tianhe

Wuhan, China

latitud: 30-37N, longitud: 114-08E, altitud: 23 m

Observación

El informe se hizo hace 15 minutos, a las 13:00 UTC
Viento 4 kt del noreste
Temperatura 7°C
Humedad 61%
Presión 1025 hPa
Visibilidad: 7000 m

METAR: ZHHH 201300Z 05002MPS 7000 NSC 07/M00 Q1025 NOSIG

Hora: 21:15 (13:15 UTC)

Pronóstico

El informe se hizo hace 5 horas y 4 minutos, a las 08:11 UTC
Pronóstico válido del 20 a las 12 UTC al 21 a las 12 UTC
Viento 6 kt del norte-noreste
Visibilidad: 3000 m
Nubes dispersas a una altura de 3000 ft
calima
Evolucionando progresivamente
del 20 a las 21 UTC al 20 a las 22 UTC
Visibilidad: 2500 m
lluvia ligera, neblina
Evolucionando progresivamente
del 21 a las 03 UTC al 21 a las 04 UTC
Visibilidad: 3000 m

TAF: ZHHH 200811Z 2012/2112 03003MPS 3000 HZ SCT030 TX08/2107Z TN01/2022Z BECMG 2021/2022 2500 -RA BR BECMG 2103/2104 3000

Observaciones y pronósticos meteorológicos de más de 4000 aeropuertos (mensajes METAR y TAF).

Los puntos amarillos y rojos representan las estaciones disponibles.

Ponga el ratón en el punto deseado para ver el nombre de la estación.

Haga clic para ver las observaciones y los pronósticos meteorológicos.

Para cambiar el mapa : haga clic en los botones verdes con una cruz de color negro para hacer un zoom, en el botón verde con un guión para alejar o en las flechas verdes para mapas adyacentes.


METAR-TAF: